Olias del Rey, Spain
Current Conditions -  °F | °C
As of 9:00 PM on Monday 20 Oct 2014 (Local Time) from LEGT Reporting Station
Clear Clear  
Wind Chill: 68°   Ceiling: Unl
Heat Index: 68°   Visibility: 6mi
Dew Point: 48°   Wind: 0mph
Humidity: 49%   Direction: NA
Pressure: 30.21"   Gusts: NA
Location:  39.94°N, 3.99°W
Report Text: LEGT 201900Z 00000KT CAVOK 20/09 Q1023
Loading
Personal Weather Stations






























Interactive Weather Map
Tropical Storm Tracking
New forecast layout! Learn more

10-Day Weather Forecast

Advertisements
Track Severe Weather on mobile